sensor_id;sensor_type;location;lat;lon;timestamp;temperature;humidity
36856;DHT22;22788;51.434;6.786;2023-04-15T00:00:46;11.20;99.90
36856;DHT22;22788;51.434;6.786;2023-04-15T00:03:12;11.20;99.90
36856;DHT22;22788;51.434;6.786;2023-04-15T00:05:39;11.20;99.90
36856;DHT22;22788;51.434;6.786;2023-04-15T00:08:05;11.10;99.90
36856;DHT22;22788;51.434;6.786;2023-04-15T00:10:30;11.00;99.90
36856;DHT22;22788;51.434;6.786;2023-04-15T00:12:56;11.10;99.90
36856;DHT22;22788;51.434;6.786;2023-04-15T00:15:21;11.10;99.90
36856;DHT22;22788;51.434;6.786;2023-04-15T00:17:49;11.10;99.90
36856;DHT22;22788;51.434;6.786;2023-04-15T00:20:15;11.00;99.90
36856;DHT22;22788;51.434;6.786;2023-04-15T00:22:42;11.10;99.90
36856;DHT22;22788;51.434;6.786;2023-04-15T00:25:08;11.10;99.90
36856;DHT22;22788;51.434;6.786;2023-04-15T00:27:34;11.10;99.90
36856;DHT22;22788;51.434;6.786;2023-04-15T00:29:59;11.00;99.90
36856;DHT22;22788;51.434;6.786;2023-04-15T00:32:25;11.00;99.90
36856;DHT22;22788;51.434;6.786;2023-04-15T00:34:51;11.00;99.90
36856;DHT22;22788;51.434;6.786;2023-04-15T00:37:16;10.90;99.90
36856;DHT22;22788;51.434;6.786;2023-04-15T00:39:43;11.00;99.90
36856;DHT22;22788;51.434;6.786;2023-04-15T00:42:09;11.00;99.90
36856;DHT22;22788;51.434;6.786;2023-04-15T00:44:35;11.10;99.90
36856;DHT22;22788;51.434;6.786;2023-04-15T00:47:00;11.00;99.90
36856;DHT22;22788;51.434;6.786;2023-04-15T00:49:26;11.00;99.90
36856;DHT22;22788;51.434;6.786;2023-04-15T00:51:53;11.00;99.90
36856;DHT22;22788;51.434;6.786;2023-04-15T00:54:19;11.00;99.90
36856;DHT22;22788;51.434;6.786;2023-04-15T00:56:46;11.00;99.90
36856;DHT22;22788;51.434;6.786;2023-04-15T00:59:12;11.00;99.90
36856;DHT22;22788;51.434;6.786;2023-04-15T01:01:38;10.90;99.90
36856;DHT22;22788;51.434;6.786;2023-04-15T01:04:04;11.00;99.90
36856;DHT22;22788;51.434;6.786;2023-04-15T01:06:30;10.90;99.90
36856;DHT22;22788;51.434;6.786;2023-04-15T01:08:57;10.90;99.90
36856;DHT22;22788;51.434;6.786;2023-04-15T01:11:23;10.90;99.90
36856;DHT22;22788;51.434;6.786;2023-04-15T01:13:51;10.90;99.90
36856;DHT22;22788;51.434;6.786;2023-04-15T01:16:17;10.90;99.90
36856;DHT22;22788;51.434;6.786;2023-04-15T01:18:43;11.00;99.90
36856;DHT22;22788;51.434;6.786;2023-04-15T01:21:09;11.00;99.90
36856;DHT22;22788;51.434;6.786;2023-04-15T01:23:35;11.00;99.90
36856;DHT22;22788;51.434;6.786;2023-04-15T01:26:03;11.00;99.90
36856;DHT22;22788;51.434;6.786;2023-04-15T01:28:29;10.90;99.90
36856;DHT22;22788;51.434;6.786;2023-04-15T01:31:05;11.20;99.90
36856;DHT22;22788;51.434;6.786;2023-04-15T01:33:32;10.80;99.90
36856;DHT22;22788;51.434;6.786;2023-04-15T01:35:58;10.90;99.90
36856;DHT22;22788;51.434;6.786;2023-04-15T01:38:25;10.90;99.90
36856;DHT22;22788;51.434;6.786;2023-04-15T01:40:51;10.80;99.90
36856;DHT22;22788;51.434;6.786;2023-04-15T01:43:18;10.70;99.90
36856;DHT22;22788;51.434;6.786;2023-04-15T01:45:44;10.70;99.90
36856;DHT22;22788;51.434;6.786;2023-04-15T01:48:09;10.80;99.90
36856;DHT22;22788;51.434;6.786;2023-04-15T01:50:35;10.80;99.90
36856;DHT22;22788;51.434;6.786;2023-04-15T01:53:00;10.80;99.90
36856;DHT22;22788;51.434;6.786;2023-04-15T01:55:26;10.70;99.90
36856;DHT22;22788;51.434;6.786;2023-04-15T01:57:51;10.70;99.90
36856;DHT22;22788;51.434;6.786;2023-04-15T02:00:18;10.70;99.90
36856;DHT22;22788;51.434;6.786;2023-04-15T02:02:44;10.70;99.90
36856;DHT22;22788;51.434;6.786;2023-04-15T02:05:10;10.80;99.90
36856;DHT22;22788;51.434;6.786;2023-04-15T02:07:35;10.70;99.90
36856;DHT22;22788;51.434;6.786;2023-04-15T02:10:01;10.80;99.90
36856;DHT22;22788;51.434;6.786;2023-04-15T02:12:27;10.70;99.90
36856;DHT22;22788;51.434;6.786;2023-04-15T02:14:52;10.70;99.90
36856;DHT22;22788;51.434;6.786;2023-04-15T02:17:19;10.70;99.90
36856;DHT22;22788;51.434;6.786;2023-04-15T02:19:45;10.70;99.90
36856;DHT22;22788;51.434;6.786;2023-04-15T02:22:10;10.70;99.90
36856;DHT22;22788;51.434;6.786;2023-04-15T02:24:36;10.70;99.90
36856;DHT22;22788;51.434;6.786;2023-04-15T02:27:01;10.70;99.90
36856;DHT22;22788;51.434;6.786;2023-04-15T02:29:27;10.70;99.90
36856;DHT22;22788;51.434;6.786;2023-04-15T02:31:53;10.60;99.90
36856;DHT22;22788;51.434;6.786;2023-04-15T02:34:20;10.60;99.90
36856;DHT22;22788;51.434;6.786;2023-04-15T02:36:45;10.60;99.90
36856;DHT22;22788;51.434;6.786;2023-04-15T02:39:11;10.60;99.90
36856;DHT22;22788;51.434;6.786;2023-04-15T02:41:36;10.60;99.90
36856;DHT22;22788;51.434;6.786;2023-04-15T02:44:02;10.60;99.90
36856;DHT22;22788;51.434;6.786;2023-04-15T02:46:27;10.60;99.90
36856;DHT22;22788;51.434;6.786;2023-04-15T02:48:53;10.60;99.90
36856;DHT22;22788;51.434;6.786;2023-04-15T02:51:21;10.60;99.90
36856;DHT22;22788;51.434;6.786;2023-04-15T02:53:47;10.60;99.90
36856;DHT22;22788;51.434;6.786;2023-04-15T02:56:13;10.50;99.90
36856;DHT22;22788;51.434;6.786;2023-04-15T02:58:39;10.60;99.90
36856;DHT22;22788;51.434;6.786;2023-04-15T03:01:05;10.60;99.90
36856;DHT22;22788;51.434;6.786;2023-04-15T03:03:30;10.60;99.90
36856;DHT22;22788;51.434;6.786;2023-04-15T03:05:56;10.70;99.90
36856;DHT22;22788;51.434;6.786;2023-04-15T03:08:23;10.60;99.90
36856;DHT22;22788;51.434;6.786;2023-04-15T03:10:48;10.50;99.90
36856;DHT22;22788;51.434;6.786;2023-04-15T03:13:14;10.50;99.90
36856;DHT22;22788;51.434;6.786;2023-04-15T03:15:40;10.50;99.90
36856;DHT22;22788;51.434;6.786;2023-04-15T03:18:05;10.50;99.90
36856;DHT22;22788;51.434;6.786;2023-04-15T03:20:31;10.50;99.90
36856;DHT22;22788;51.434;6.786;2023-04-15T03:22:56;10.30;99.90
36856;DHT22;22788;51.434;6.786;2023-04-15T03:25:23;10.30;99.90
36856;DHT22;22788;51.434;6.786;2023-04-15T03:27:49;10.20;99.90
36856;DHT22;22788;51.434;6.786;2023-04-15T03:30:15;10.30;99.90
36856;DHT22;22788;51.434;6.786;2023-04-15T03:32:40;10.30;99.90
36856;DHT22;22788;51.434;6.786;2023-04-15T03:35:06;10.30;99.90
36856;DHT22;22788;51.434;6.786;2023-04-15T03:37:32;10.30;99.90
36856;DHT22;22788;51.434;6.786;2023-04-15T03:39:57;10.30;99.90
36856;DHT22;22788;51.434;6.786;2023-04-15T03:42:25;10.30;99.90
36856;DHT22;22788;51.434;6.786;2023-04-15T03:44:50;10.20;99.90
36856;DHT22;22788;51.434;6.786;2023-04-15T03:47:16;10.20;99.90
36856;DHT22;22788;51.434;6.786;2023-04-15T03:49:41;10.20;99.90
36856;DHT22;22788;51.434;6.786;2023-04-15T03:52:07;10.30;99.90
36856;DHT22;22788;51.434;6.786;2023-04-15T03:54:33;10.30;99.90
36856;DHT22;22788;51.434;6.786;2023-04-15T03:56:58;10.30;99.90
36856;DHT22;22788;51.434;6.786;2023-04-15T03:59:25;10.30;99.90
36856;DHT22;22788;51.434;6.786;2023-04-15T04:01:51;10.30;99.90
36856;DHT22;22788;51.434;6.786;2023-04-15T04:04:16;10.30;99.90
36856;DHT22;22788;51.434;6.786;2023-04-15T04:06:42;10.20;99.90
36856;DHT22;22788;51.434;6.786;2023-04-15T04:09:07;10.10;99.90
36856;DHT22;22788;51.434;6.786;2023-04-15T04:11:33;10.10;99.90
36856;DHT22;22788;51.434;6.786;2023-04-15T04:13:59;10.00;99.90
36856;DHT22;22788;51.434;6.786;2023-04-15T04:16:26;10.10;99.90
36856;DHT22;22788;51.434;6.786;2023-04-15T04:18:51;10.80;99.90
36856;DHT22;22788;51.434;6.786;2023-04-15T04:21:17;10.20;99.90
36856;DHT22;22788;51.434;6.786;2023-04-15T04:23:42;10.10;99.90
36856;DHT22;22788;51.434;6.786;2023-04-15T04:26:08;10.00;99.90
36856;DHT22;22788;51.434;6.786;2023-04-15T04:28:34;10.00;99.90
36856;DHT22;22788;51.434;6.786;2023-04-15T04:30:59;10.10;99.90
36856;DHT22;22788;51.434;6.786;2023-04-15T04:33:26;10.10;99.90
36856;DHT22;22788;51.434;6.786;2023-04-15T04:35:52;10.10;99.90
36856;DHT22;22788;51.434;6.786;2023-04-15T04:38:18;10.10;99.90
36856;DHT22;22788;51.434;6.786;2023-04-15T04:40:43;10.20;99.90
36856;DHT22;22788;51.434;6.786;2023-04-15T04:43:09;10.10;99.90
36856;DHT22;22788;51.434;6.786;2023-04-15T04:45:34;10.10;99.90
36856;DHT22;22788;51.434;6.786;2023-04-15T04:48:00;10.00;99.90
36856;DHT22;22788;51.434;6.786;2023-04-15T04:50:27;9.90;99.90
36856;DHT22;22788;51.434;6.786;2023-04-15T04:52:53;10.00;99.90
36856;DHT22;22788;51.434;6.786;2023-04-15T04:55:19;10.00;99.90
36856;DHT22;22788;51.434;6.786;2023-04-15T04:57:44;9.90;99.90
36856;DHT22;22788;51.434;6.786;2023-04-15T05:00:11;10.00;99.90
36856;DHT22;22788;51.434;6.786;2023-04-15T05:02:36;9.90;99.90
36856;DHT22;22788;51.434;6.786;2023-04-15T05:05:02;9.90;99.90
36856;DHT22;22788;51.434;6.786;2023-04-15T05:07:30;9.80;99.90
36856;DHT22;22788;51.434;6.786;2023-04-15T05:09:55;9.80;99.90
36856;DHT22;22788;51.434;6.786;2023-04-15T05:12:21;9.90;99.90
36856;DHT22;22788;51.434;6.786;2023-04-15T05:14:47;10.00;99.90
36856;DHT22;22788;51.434;6.786;2023-04-15T05:17:12;10.00;99.90
36856;DHT22;22788;51.434;6.786;2023-04-15T05:19:38;10.00;99.90
36856;DHT22;22788;51.434;6.786;2023-04-15T05:22:03;9.90;99.90
36856;DHT22;22788;51.434;6.786;2023-04-15T05:24:31;9.80;99.90
36856;DHT22;22788;51.434;6.786;2023-04-15T05:26:56;10.00;99.90
36856;DHT22;22788;51.434;6.786;2023-04-15T05:29:22;9.90;99.90
36856;DHT22;22788;51.434;6.786;2023-04-15T05:31:47;9.80;99.90
36856;DHT22;22788;51.434;6.786;2023-04-15T05:34:13;9.80;99.90
36856;DHT22;22788;51.434;6.786;2023-04-15T05:36:39;9.90;99.90
36856;DHT22;22788;51.434;6.786;2023-04-15T05:39:04;9.90;99.90
36856;DHT22;22788;51.434;6.786;2023-04-15T05:41:31;9.80;99.90
36856;DHT22;22788;51.434;6.786;2023-04-15T05:43:57;9.80;99.90
36856;DHT22;22788;51.434;6.786;2023-04-15T05:46:23;9.70;99.90
36856;DHT22;22788;51.434;6.786;2023-04-15T05:48:48;9.80;99.90
36856;DHT22;22788;51.434;6.786;2023-04-15T05:51:14;9.90;99.90
36856;DHT22;22788;51.434;6.786;2023-04-15T05:53:39;10.00;99.90
36856;DHT22;22788;51.434;6.786;2023-04-15T05:56:05;9.90;99.90
36856;DHT22;22788;51.434;6.786;2023-04-15T05:58:32;9.90;99.90
36856;DHT22;22788;51.434;6.786;2023-04-15T06:00:58;10.10;99.90
36856;DHT22;22788;51.434;6.786;2023-04-15T06:03:24;9.80;99.90
36856;DHT22;22788;51.434;6.786;2023-04-15T06:05:49;9.90;99.90
36856;DHT22;22788;51.434;6.786;2023-04-15T06:08:15;9.90;99.90
36856;DHT22;22788;51.434;6.786;2023-04-15T06:10:41;9.90;99.90
36856;DHT22;22788;51.434;6.786;2023-04-15T06:13:06;9.90;99.90
36856;DHT22;22788;51.434;6.786;2023-04-15T06:15:33;9.90;99.90
36856;DHT22;22788;51.434;6.786;2023-04-15T06:17:59;9.90;99.90
36856;DHT22;22788;51.434;6.786;2023-04-15T06:20:25;9.90;99.90
36856;DHT22;22788;51.434;6.786;2023-04-15T06:22:51;9.80;99.90
36856;DHT22;22788;51.434;6.786;2023-04-15T06:25:16;9.90;99.90
36856;DHT22;22788;51.434;6.786;2023-04-15T06:27:42;9.90;99.90
36856;DHT22;22788;51.434;6.786;2023-04-15T06:30:08;9.90;99.90
36856;DHT22;22788;51.434;6.786;2023-04-15T06:32:35;9.90;99.90
36856;DHT22;22788;51.434;6.786;2023-04-15T06:35:01;10.00;99.90
36856;DHT22;22788;51.434;6.786;2023-04-15T06:37:27;10.00;99.90
36856;DHT22;22788;51.434;6.786;2023-04-15T06:39:52;10.00;99.90
36856;DHT22;22788;51.434;6.786;2023-04-15T06:42:18;9.90;99.90
36856;DHT22;22788;51.434;6.786;2023-04-15T06:44:44;9.90;99.90
36856;DHT22;22788;51.434;6.786;2023-04-15T06:47:09;9.90;99.90
36856;DHT22;22788;51.434;6.786;2023-04-15T06:49:36;10.00;99.90
36856;DHT22;22788;51.434;6.786;2023-04-15T06:52:02;10.00;99.90
36856;DHT22;22788;51.434;6.786;2023-04-15T06:54:27;10.00;99.90
36856;DHT22;22788;51.434;6.786;2023-04-15T06:56:53;10.00;99.90
36856;DHT22;22788;51.434;6.786;2023-04-15T06:59:18;10.10;99.90
36856;DHT22;22788;51.434;6.786;2023-04-15T07:01:44;10.00;99.90
36856;DHT22;22788;51.434;6.786;2023-04-15T07:04:10;10.00;99.90
36856;DHT22;22788;51.434;6.786;2023-04-15T07:06:37;9.90;99.90
36856;DHT22;22788;51.434;6.786;2023-04-15T07:09:02;9.80;99.90
36856;DHT22;22788;51.434;6.786;2023-04-15T07:11:28;9.90;99.90
36856;DHT22;22788;51.434;6.786;2023-04-15T07:13:53;10.00;99.90
36856;DHT22;22788;51.434;6.786;2023-04-15T07:16:19;10.30;99.90
36856;DHT22;22788;51.434;6.786;2023-04-15T07:18:45;10.10;99.90
36856;DHT22;22788;51.434;6.786;2023-04-15T07:21:10;10.10;99.90
36856;DHT22;22788;51.434;6.786;2023-04-15T07:23:38;10.20;99.90
36856;DHT22;22788;51.434;6.786;2023-04-15T07:26:03;10.10;99.90
36856;DHT22;22788;51.434;6.786;2023-04-15T07:28:29;10.20;99.90
36856;DHT22;22788;51.434;6.786;2023-04-15T07:30:55;10.20;99.90
36856;DHT22;22788;51.434;6.786;2023-04-15T07:33:20;10.20;99.90
36856;DHT22;22788;51.434;6.786;2023-04-15T07:35:46;10.30;99.90
36856;DHT22;22788;51.434;6.786;2023-04-15T07:38:11;10.30;99.90
36856;DHT22;22788;51.434;6.786;2023-04-15T07:40:38;10.30;99.90
36856;DHT22;22788;51.434;6.786;2023-04-15T07:43:04;10.30;99.90
36856;DHT22;22788;51.434;6.786;2023-04-15T07:45:30;10.30;99.90
36856;DHT22;22788;51.434;6.786;2023-04-15T07:47:55;10.30;99.90
36856;DHT22;22788;51.434;6.786;2023-04-15T07:50:21;10.40;99.90
36856;DHT22;22788;51.434;6.786;2023-04-15T07:52:47;10.30;99.90
36856;DHT22;22788;51.434;6.786;2023-04-15T07:55:13;10.40;99.90
36856;DHT22;22788;51.434;6.786;2023-04-15T07:57:40;10.30;99.90
36856;DHT22;22788;51.434;6.786;2023-04-15T08:00:07;10.30;99.90
36856;DHT22;22788;51.434;6.786;2023-04-15T08:02:33;10.40;99.90
36856;DHT22;22788;51.434;6.786;2023-04-15T08:04:59;10.40;99.90
36856;DHT22;22788;51.434;6.786;2023-04-15T08:07:24;10.40;99.90
36856;DHT22;22788;51.434;6.786;2023-04-15T08:09:50;10.50;99.90
36856;DHT22;22788;51.434;6.786;2023-04-15T08:12:16;10.50;99.90
36856;DHT22;22788;51.434;6.786;2023-04-15T08:14:43;10.50;99.90
36856;DHT22;22788;51.434;6.786;2023-04-15T08:17:09;10.60;99.90
36856;DHT22;22788;51.434;6.786;2023-04-15T08:19:34;10.60;99.90
36856;DHT22;22788;51.434;6.786;2023-04-15T08:22:00;10.60;99.90
36856;DHT22;22788;51.434;6.786;2023-04-15T08:24:25;10.60;99.90
36856;DHT22;22788;51.434;6.786;2023-04-15T08:26:51;10.60;99.90
36856;DHT22;22788;51.434;6.786;2023-04-15T08:29:17;10.60;99.90
36856;DHT22;22788;51.434;6.786;2023-04-15T08:31:44;10.50;99.90
36856;DHT22;22788;51.434;6.786;2023-04-15T08:34:10;10.60;99.90
36856;DHT22;22788;51.434;6.786;2023-04-15T08:36:36;10.60;99.90
36856;DHT22;22788;51.434;6.786;2023-04-15T08:39:01;10.70;99.90
36856;DHT22;22788;51.434;6.786;2023-04-15T08:41:32;10.70;99.90
36856;DHT22;22788;51.434;6.786;2023-04-15T08:44:02;10.70;99.90
36856;DHT22;22788;51.434;6.786;2023-04-15T08:46:29;10.80;99.90
36856;DHT22;22788;51.434;6.786;2023-04-15T08:48:57;10.70;99.90
36856;DHT22;22788;51.434;6.786;2023-04-15T08:51:23;10.70;99.90
36856;DHT22;22788;51.434;6.786;2023-04-15T10:06:51;11.30;99.90
36856;DHT22;22788;51.434;6.786;2023-04-15T10:09:17;11.30;99.90
36856;DHT22;22788;51.434;6.786;2023-04-15T10:11:42;11.40;99.90
36856;DHT22;22788;51.434;6.786;2023-04-15T10:14:09;11.30;99.90
36856;DHT22;22788;51.434;6.786;2023-04-15T10:16:37;11.40;99.90
36856;DHT22;22788;51.434;6.786;2023-04-15T10:19:06;11.40;99.90
36856;DHT22;22788;51.434;6.786;2023-04-15T10:21:32;11.40;99.90
36856;DHT22;22788;51.434;6.786;2023-04-15T10:24:01;11.30;99.90
36856;DHT22;22788;51.434;6.786;2023-04-15T10:26:27;11.40;99.90
36856;DHT22;22788;51.434;6.786;2023-04-15T10:28:54;11.40;99.90
36856;DHT22;22788;51.434;6.786;2023-04-15T10:31:20;11.40;99.90
36856;DHT22;22788;51.434;6.786;2023-04-15T10:33:46;11.50;99.90
36856;DHT22;22788;51.434;6.786;2023-04-15T10:36:13;11.50;99.90
36856;DHT22;22788;51.434;6.786;2023-04-15T10:38:40;11.50;99.90
36856;DHT22;22788;51.434;6.786;2023-04-15T10:41:27;11.50;99.90
36856;DHT22;22788;51.434;6.786;2023-04-15T10:43:54;11.50;99.90
36856;DHT22;22788;51.434;6.786;2023-04-15T10:46:24;11.60;99.90
36856;DHT22;22788;51.434;6.786;2023-04-15T10:49:06;11.50;99.90
36856;DHT22;22788;51.434;6.786;2023-04-15T10:51:32;11.50;99.90
36856;DHT22;22788;51.434;6.786;2023-04-15T10:53:58;11.50;99.90
36856;DHT22;22788;51.434;6.786;2023-04-15T10:56:27;11.50;99.90
36856;DHT22;22788;51.434;6.786;2023-04-15T10:58:53;11.40;99.90
36856;DHT22;22788;51.434;6.786;2023-04-15T11:01:19;11.40;99.90
36856;DHT22;22788;51.434;6.786;2023-04-15T11:03:45;11.40;99.90
36856;DHT22;22788;51.434;6.786;2023-04-15T11:06:10;11.40;99.90
36856;DHT22;22788;51.434;6.786;2023-04-15T11:08:59;11.50;99.90
36856;DHT22;22788;51.434;6.786;2023-04-15T11:12:05;11.50;99.90
36856;DHT22;22788;51.434;6.786;2023-04-15T11:14:32;11.40;99.90
36856;DHT22;22788;51.434;6.786;2023-04-15T11:16:57;11.40;99.90
36856;DHT22;22788;51.434;6.786;2023-04-15T11:19:23;11.40;99.90
36856;DHT22;22788;51.434;6.786;2023-04-15T11:21:49;11.40;99.90
36856;DHT22;22788;51.434;6.786;2023-04-15T11:24:23;11.40;99.90
36856;DHT22;22788;51.434;6.786;2023-04-15T11:26:48;11.40;99.90
36856;DHT22;22788;51.434;6.786;2023-04-15T11:29:17;11.50;99.90
36856;DHT22;22788;51.434;6.786;2023-04-15T11:31:46;11.50;99.90
36856;DHT22;22788;51.434;6.786;2023-04-15T11:34:11;11.50;99.90
36856;DHT22;22788;51.434;6.786;2023-04-15T11:36:46;11.50;99.90
36856;DHT22;22788;51.434;6.786;2023-04-15T11:39:12;11.60;99.90
36856;DHT22;22788;51.434;6.786;2023-04-15T11:41:39;11.60;99.90
36856;DHT22;22788;51.434;6.786;2023-04-15T11:44:15;11.60;99.90
36856;DHT22;22788;51.434;6.786;2023-04-15T11:46:42;11.60;99.90
36856;DHT22;22788;51.434;6.786;2023-04-15T11:49:08;11.60;99.90
36856;DHT22;22788;51.434;6.786;2023-04-15T11:51:34;11.60;99.90
36856;DHT22;22788;51.434;6.786;2023-04-15T11:54:00;11.60;99.90
36856;DHT22;22788;51.434;6.786;2023-04-15T11:56:26;11.70;99.90
36856;DHT22;22788;51.434;6.786;2023-04-15T11:58:52;11.60;99.90
36856;DHT22;22788;51.434;6.786;2023-04-15T12:01:18;11.70;99.90
36856;DHT22;22788;51.434;6.786;2023-04-15T12:03:45;11.70;99.90
36856;DHT22;22788;51.434;6.786;2023-04-15T12:06:16;11.70;99.90
36856;DHT22;22788;51.434;6.786;2023-04-15T12:08:55;11.70;99.90
36856;DHT22;22788;51.434;6.786;2023-04-15T12:11:29;11.70;99.90
36856;DHT22;22788;51.434;6.786;2023-04-15T12:13:56;11.70;99.90
36856;DHT22;22788;51.434;6.786;2023-04-15T12:16:23;11.70;99.90
36856;DHT22;22788;51.434;6.786;2023-04-15T12:18:51;11.70;99.90
36856;DHT22;22788;51.434;6.786;2023-04-15T12:21:18;11.70;99.90
36856;DHT22;22788;51.434;6.786;2023-04-15T12:23:47;11.60;99.90
36856;DHT22;22788;51.434;6.786;2023-04-15T12:26:13;11.60;99.90
36856;DHT22;22788;51.434;6.786;2023-04-15T12:28:39;11.70;99.90
36856;DHT22;22788;51.434;6.786;2023-04-15T12:31:08;11.70;99.90
36856;DHT22;22788;51.434;6.786;2023-04-15T12:33:34;11.70;99.90
36856;DHT22;22788;51.434;6.786;2023-04-15T12:36:01;11.70;99.90
36856;DHT22;22788;51.434;6.786;2023-04-15T12:38:28;11.60;99.90
36856;DHT22;22788;51.434;6.786;2023-04-15T12:40:53;11.70;99.90
36856;DHT22;22788;51.434;6.786;2023-04-15T12:43:19;11.70;99.90
36856;DHT22;22788;51.434;6.786;2023-04-15T12:45:45;11.60;99.90
36856;DHT22;22788;51.434;6.786;2023-04-15T12:48:10;11.70;99.90
36856;DHT22;22788;51.434;6.786;2023-04-15T12:50:36;11.60;99.90
36856;DHT22;22788;51.434;6.786;2023-04-15T12:53:03;11.70;99.90
36856;DHT22;22788;51.434;6.786;2023-04-15T12:55:28;11.70;99.90
36856;DHT22;22788;51.434;6.786;2023-04-15T12:57:54;11.60;99.90
36856;DHT22;22788;51.434;6.786;2023-04-15T13:00:22;11.70;99.90
36856;DHT22;22788;51.434;6.786;2023-04-15T13:02:48;11.70;99.90
36856;DHT22;22788;51.434;6.786;2023-04-15T13:05:14;11.80;99.90
36856;DHT22;22788;51.434;6.786;2023-04-15T13:07:39;11.80;99.90
36856;DHT22;22788;51.434;6.786;2023-04-15T13:10:07;11.80;99.90
36856;DHT22;22788;51.434;6.786;2023-04-15T13:12:33;11.70;99.90
36856;DHT22;22788;51.434;6.786;2023-04-15T13:14:59;11.70;99.90
36856;DHT22;22788;51.434;6.786;2023-04-15T13:17:24;11.60;99.90
36856;DHT22;22788;51.434;6.786;2023-04-15T13:19:50;11.50;99.90
36856;DHT22;22788;51.434;6.786;2023-04-15T13:22:16;11.60;99.90
36856;DHT22;22788;51.434;6.786;2023-04-15T13:24:41;11.60;99.90
36856;DHT22;22788;51.434;6.786;2023-04-15T13:27:08;11.60;99.90
36856;DHT22;22788;51.434;6.786;2023-04-15T13:29:34;11.60;99.90
36856;DHT22;22788;51.434;6.786;2023-04-15T13:31:59;11.80;99.90
36856;DHT22;22788;51.434;6.786;2023-04-15T13:34:25;11.50;99.90
36856;DHT22;22788;51.434;6.786;2023-04-15T13:36:50;11.50;99.90
36856;DHT22;22788;51.434;6.786;2023-04-15T13:39:16;11.50;99.90
36856;DHT22;22788;51.434;6.786;2023-04-15T13:41:42;11.50;99.90
36856;DHT22;22788;51.434;6.786;2023-04-15T13:44:09;11.50;99.90
36856;DHT22;22788;51.434;6.786;2023-04-15T13:46:34;11.50;99.90
36856;DHT22;22788;51.434;6.786;2023-04-15T13:49:00;11.60;99.90
36856;DHT22;22788;51.434;6.786;2023-04-15T13:51:25;11.50;99.90
36856;DHT22;22788;51.434;6.786;2023-04-15T13:53:51;11.50;99.90
36856;DHT22;22788;51.434;6.786;2023-04-15T13:56:17;11.50;99.90
36856;DHT22;22788;51.434;6.786;2023-04-15T13:58:42;11.50;99.90
36856;DHT22;22788;51.434;6.786;2023-04-15T14:01:09;11.50;99.90
36856;DHT22;22788;51.434;6.786;2023-04-15T14:03:35;11.50;99.90
36856;DHT22;22788;51.434;6.786;2023-04-15T14:06:01;11.50;99.90
36856;DHT22;22788;51.434;6.786;2023-04-15T14:08:26;11.50;99.90
36856;DHT22;22788;51.434;6.786;2023-04-15T14:10:52;11.40;99.90
36856;DHT22;22788;51.434;6.786;2023-04-15T14:13:17;11.40;99.90
36856;DHT22;22788;51.434;6.786;2023-04-15T14:15:43;11.50;99.90
36856;DHT22;22788;51.434;6.786;2023-04-15T14:18:10;11.40;99.90
36856;DHT22;22788;51.434;6.786;2023-04-15T14:20:36;11.50;99.90
36856;DHT22;22788;51.434;6.786;2023-04-15T14:23:01;11.50;99.90
36856;DHT22;22788;51.434;6.786;2023-04-15T14:25:27;11.60;99.90
36856;DHT22;22788;51.434;6.786;2023-04-15T14:27:53;11.50;99.90
36856;DHT22;22788;51.434;6.786;2023-04-15T14:30:18;11.50;99.90
36856;DHT22;22788;51.434;6.786;2023-04-15T14:32:44;11.50;99.90
36856;DHT22;22788;51.434;6.786;2023-04-15T14:35:11;11.50;99.90
36856;DHT22;22788;51.434;6.786;2023-04-15T14:37:37;11.50;99.90
36856;DHT22;22788;51.434;6.786;2023-04-15T14:40:03;11.50;99.90
36856;DHT22;22788;51.434;6.786;2023-04-15T14:42:28;11.50;99.90
36856;DHT22;22788;51.434;6.786;2023-04-15T14:44:54;11.40;99.90
36856;DHT22;22788;51.434;6.786;2023-04-15T14:47:19;11.40;99.90
36856;DHT22;22788;51.434;6.786;2023-04-15T14:49:45;11.40;99.90
36856;DHT22;22788;51.434;6.786;2023-04-15T14:52:12;11.40;99.90
36856;DHT22;22788;51.434;6.786;2023-04-15T14:54:38;11.40;99.90
36856;DHT22;22788;51.434;6.786;2023-04-15T14:57:03;11.40;99.90
36856;DHT22;22788;51.434;6.786;2023-04-15T14:59:29;11.40;99.90
36856;DHT22;22788;51.434;6.786;2023-04-15T15:01:54;11.40;99.90
36856;DHT22;22788;51.434;6.786;2023-04-15T15:04:20;11.40;99.90
36856;DHT22;22788;51.434;6.786;2023-04-15T15:06:46;11.40;99.90
36856;DHT22;22788;51.434;6.786;2023-04-15T15:09:13;11.30;99.90
36856;DHT22;22788;51.434;6.786;2023-04-15T15:11:38;11.40;99.90
36856;DHT22;22788;51.434;6.786;2023-04-15T15:14:04;11.30;99.90
36856;DHT22;22788;51.434;6.786;2023-04-15T15:16:29;11.30;99.90
36856;DHT22;22788;51.434;6.786;2023-04-15T15:18:55;11.40;99.90
36856;DHT22;22788;51.434;6.786;2023-04-15T15:21:21;11.40;99.90
36856;DHT22;22788;51.434;6.786;2023-04-15T15:23:46;11.40;99.90
36856;DHT22;22788;51.434;6.786;2023-04-15T15:26:13;11.30;99.90
36856;DHT22;22788;51.434;6.786;2023-04-15T15:28:39;11.30;99.90
36856;DHT22;22788;51.434;6.786;2023-04-15T15:31:04;11.30;99.90
36856;DHT22;22788;51.434;6.786;2023-04-15T15:33:30;11.30;99.90
36856;DHT22;22788;51.434;6.786;2023-04-15T15:35:56;11.30;99.90
36856;DHT22;22788;51.434;6.786;2023-04-15T15:38:22;11.20;99.90
36856;DHT22;22788;51.434;6.786;2023-04-15T15:40:48;11.30;99.90
36856;DHT22;22788;51.434;6.786;2023-04-15T15:43:15;11.30;99.90
36856;DHT22;22788;51.434;6.786;2023-04-15T15:45:40;11.20;99.90
36856;DHT22;22788;51.434;6.786;2023-04-15T15:48:06;11.20;99.90
36856;DHT22;22788;51.434;6.786;2023-04-15T15:50:32;11.10;99.90
36856;DHT22;22788;51.434;6.786;2023-04-15T15:52:57;11.10;99.90
36856;DHT22;22788;51.434;6.786;2023-04-15T15:55:23;11.10;99.90
36856;DHT22;22788;51.434;6.786;2023-04-15T15:57:49;11.00;99.90
36856;DHT22;22788;51.434;6.786;2023-04-15T16:00:16;11.00;99.90
36856;DHT22;22788;51.434;6.786;2023-04-15T16:02:42;11.10;99.90
36856;DHT22;22788;51.434;6.786;2023-04-15T16:05:08;11.10;99.90
36856;DHT22;22788;51.434;6.786;2023-04-15T16:07:34;11.00;99.90
36856;DHT22;22788;51.434;6.786;2023-04-15T16:10:00;11.00;99.90
36856;DHT22;22788;51.434;6.786;2023-04-15T16:12:25;10.90;99.90
36856;DHT22;22788;51.434;6.786;2023-04-15T16:14:51;10.90;99.90
36856;DHT22;22788;51.434;6.786;2023-04-15T16:17:18;10.90;99.90
36856;DHT22;22788;51.434;6.786;2023-04-15T16:19:44;10.80;99.90
36856;DHT22;22788;51.434;6.786;2023-04-15T16:22:09;10.80;99.90
36856;DHT22;22788;51.434;6.786;2023-04-15T16:24:35;10.80;99.90
36856;DHT22;22788;51.434;6.786;2023-04-15T16:27:01;10.80;99.90
36856;DHT22;22788;51.434;6.786;2023-04-15T16:29:27;10.80;99.90
36856;DHT22;22788;51.434;6.786;2023-04-15T16:31:54;10.80;99.90
36856;DHT22;22788;51.434;6.786;2023-04-15T16:34:21;10.80;99.90
36856;DHT22;22788;51.434;6.786;2023-04-15T16:36:46;10.80;99.90
36856;DHT22;22788;51.434;6.786;2023-04-15T16:39:12;10.90;99.90